Time;durP1;ratioP1;P1;durP2;ratioP2;P2;SDS_P1;SDS_P2;PMS_P1;PMS_P2;Temp;Humidity;BMP_temperature;BMP_pressure;BME280_temperature;BME280_humidity;BME280_pressure;Samples;Min_cycle;Max_cycle;Signal;HPM_P1;HPM_P2
2022/03/23 00:00:17;;;;;;;20.02;11.45;;;18.80;47.50;;;;;;6096855;23;20182;-87
2022/03/23 00:02:43;;;;;;;18.40;12.15;;;18.70;47.40;;;;;;6146842;23;20217;-87
2022/03/23 00:05:09;;;;;;;16.38;11.20;;;18.80;47.70;;;;;;6110947;23;20155;-89
2022/03/23 00:07:39;;;;;;;17.30;11.40;;;18.70;47.30;;;;;;6110874;23;20148;-87
2022/03/23 00:10:10;;;;;;;16.17;12.25;;;18.70;47.40;;;;;;6086232;23;20178;-89
2022/03/23 00:12:36;;;;;;;19.20;11.95;;;18.70;47.90;;;;;;6086766;23;20182;-87
2022/03/23 00:15:03;;;;;;;17.10;11.98;;;18.60;47.60;;;;;;6111265;23;20263;-87
2022/03/23 00:17:29;;;;;;;18.25;11.73;;;18.70;47.80;;;;;;6110793;23;20180;-87
2022/03/23 00:20:01;;;;;;;18.23;11.65;;;18.70;47.70;;;;;;6135637;23;20164;-87
2022/03/23 00:22:31;;;;;;;18.38;11.48;;;18.70;47.80;;;;;;6063694;23;20243;-87
2022/03/23 00:24:57;;;;;;;18.38;12.23;;;18.60;47.80;;;;;;6087675;23;20159;-87
2022/03/23 00:27:35;;;;;;;20.55;12.43;;;18.60;47.80;;;;;;6111207;23;20211;-87
2022/03/23 00:30:05;;;;;;;16.55;12.10;;;18.60;47.80;;;;;;6111072;23;20152;-88
2022/03/23 00:32:36;;;;;;;17.35;12.38;;;18.70;47.80;;;;;;6087812;23;20148;-87
2022/03/23 00:35:06;;;;;;;17.88;11.73;;;18.70;48.00;;;;;;6086943;23;20148;-87
2022/03/23 00:37:43;;;;;;;14.93;11.40;;;18.60;47.70;;;;;;6111354;23;20167;-87
2022/03/23 00:40:13;;;;;;;16.58;12.23;;;18.50;48.00;;;;;;6087292;23;20592;-87
2022/03/23 00:42:40;;;;;;;17.67;11.65;;;18.60;48.00;;;;;;6108561;23;20146;-88
2022/03/23 00:45:07;;;;;;;20.30;12.65;;;18.60;47.80;;;;;;6147339;23;20173;-87
2022/03/23 00:47:38;;;;;;;19.15;12.02;;;18.60;48.10;;;;;;6145076;23;20147;-90
2022/03/23 00:50:12;;;;;;;19.15;12.70;;;18.60;48.30;;;;;;6120807;23;20162;-88
2022/03/23 00:52:38;;;;;;;19.60;11.73;;;18.60;48.30;;;;;;6097550;23;20595;-88
2022/03/23 00:55:09;;;;;;;19.35;12.38;;;18.50;48.30;;;;;;6172022;23;20161;-89
2022/03/23 00:57:37;;;;;;;19.83;12.18;;;18.50;48.30;;;;;;6121982;23;20169;-88
2022/03/23 01:00:12;;;;;;;18.08;11.52;;;18.50;48.40;;;;;;6147323;23;20150;-87
2022/03/23 01:02:39;;;;;;;17.25;12.02;;;18.40;48.20;;;;;;6098967;23;20189;-87
2022/03/23 01:05:13;;;;;;;15.05;11.35;;;18.60;48.40;;;;;;6146320;23;20147;-87
2022/03/23 01:07:43;;;;;;;15.77;11.05;;;18.50;48.40;;;;;;6120389;23;20163;-87
2022/03/23 01:10:15;;;;;;;18.27;11.77;;;18.50;48.40;;;;;;6121027;23;20479;-88
2022/03/23 01:12:46;;;;;;;19.83;11.88;;;18.40;48.40;;;;;;6120433;23;20174;-88
2022/03/23 01:15:22;;;;;;;16.17;11.80;;;18.50;48.50;;;;;;6121915;23;20186;-87
2022/03/23 01:17:52;;;;;;;16.83;11.38;;;18.50;48.30;;;;;;6121229;23;20150;-88
2022/03/23 01:20:25;;;;;;;18.35;11.23;;;18.50;48.50;;;;;;6104122;23;20153;-87
2022/03/23 01:22:59;;;;;;;16.30;11.55;;;18.40;48.50;;;;;;6057075;23;20247;-87
2022/03/23 01:25:29;;;;;;;15.45;11.60;;;18.50;48.60;;;;;;6058248;23;20163;-87
2022/03/23 01:27:59;;;;;;;16.45;11.82;;;18.40;48.60;;;;;;6087591;23;20153;-87
2022/03/23 01:30:38;;;;;;;19.98;12.15;;;18.40;48.60;;;;;;6063777;23;20204;-87
2022/03/23 01:33:04;;;;;;;16.92;12.00;;;18.40;48.70;;;;;;6087433;23;20156;-87
2022/03/23 01:35:35;;;;;;;15.90;11.55;;;18.40;48.40;;;;;;6064555;23;20152;-88
2022/03/23 01:38:05;;;;;;;18.98;12.50;;;18.40;48.50;;;;;;6065251;23;20176;-87
2022/03/23 01:40:31;;;;;;;19.30;12.18;;;18.40;48.50;;;;;;6064399;23;20581;-88
2022/03/23 01:42:57;;;;;;;16.33;11.48;;;18.50;48.70;;;;;;6064314;23;20148;-87
2022/03/23 01:45:23;;;;;;;18.55;11.63;;;18.40;48.80;;;;;;6065045;23;20149;-87
2022/03/23 01:47:49;;;;;;;16.35;11.70;;;18.40;48.70;;;;;;6066308;23;20141;-87
2022/03/23 01:50:23;;;;;;;16.17;11.25;;;18.40;48.60;;;;;;6099073;23;20144;-87
2022/03/23 01:52:53;;;;;;;18.23;12.00;;;18.40;48.70;;;;;;6105517;23;20154;-88
2022/03/23 01:55:27;;;;;;;20.70;12.05;;;18.40;48.60;;;;;;6149172;23;20138;-87
2022/03/23 01:58:08;;;;;;;16.58;12.05;;;18.40;48.70;;;;;;6074507;23;20150;-88
2022/03/23 02:00:39;;;;;;;15.15;11.77;;;18.40;48.80;;;;;;6122408;23;20154;-87
2022/03/23 02:03:04;;;;;;;17.02;11.50;;;18.30;48.60;;;;;;6099446;23;20225;-87
2022/03/23 02:05:33;;;;;;;15.82;11.30;;;18.40;48.80;;;;;;6148048;23;20230;-87
2022/03/23 02:08:06;;;;;;;20.33;11.98;;;18.40;48.60;;;;;;6149065;23;20623;-87
2022/03/23 02:10:38;;;;;;;15.85;11.00;;;18.40;48.70;;;;;;6123764;23;20154;-88
2022/03/23 02:13:05;;;;;;;16.95;11.80;;;18.40;48.60;;;;;;6099108;23;20158;-87
2022/03/23 02:15:38;;;;;;;18.02;11.98;;;18.40;48.80;;;;;;6108055;23;20580;-87
2022/03/23 02:18:06;;;;;;;18.92;12.07;;;18.40;48.70;;;;;;6037224;23;20216;-87
2022/03/23 02:20:38;;;;;;;18.33;12.40;;;18.30;48.50;;;;;;6083497;23;20152;-87
2022/03/23 02:23:04;;;;;;;18.30;12.07;;;18.40;48.80;;;;;;6036392;23;20157;-87
2022/03/23 02:25:34;;;;;;;19.35;11.85;;;18.30;48.70;;;;;;6084887;23;20145;-87
2022/03/23 02:28:00;;;;;;;15.32;11.60;;;18.40;48.80;;;;;;6084621;23;20191;-87
2022/03/23 02:30:28;;;;;;;18.00;11.88;;;18.30;49.40;;;;;;6085031;23;20170;-87
2022/03/23 02:32:59;;;;;;;16.95;11.43;;;18.40;48.80;;;;;;6060425;23;20257;-88
2022/03/23 02:35:26;;;;;;;14.10;11.23;;;18.40;48.80;;;;;;6036998;23;20157;-87
2022/03/23 02:37:52;;;;;;;16.75;11.43;;;18.30;48.80;;;;;;6060480;23;20145;-87
2022/03/23 02:40:25;;;;;;;17.13;11.98;;;18.40;48.90;;;;;;6060800;23;20180;-87
2022/03/23 02:42:55;;;;;;;16.27;11.60;;;18.30;48.80;;;;;;6084861;23;20141;-87
2022/03/23 02:45:25;;;;;;;14.95;11.43;;;18.40;48.90;;;;;;6036495;23;20184;-87
2022/03/23 02:48:07;;;;;;;16.92;11.57;;;18.30;48.90;;;;;;6061098;23;20148;-87
2022/03/23 02:50:34;;;;;;;16.17;11.65;;;18.30;48.80;;;;;;6035941;23;20680;-87
2022/03/23 03:02:02;;;;;;;16.85;11.70;;;18.30;49.20;;;;;;6177898;23;20135;-88
2022/03/23 03:04:18;;;;;;;17.33;11.88;;;18.30;48.90;;;;;;6146982;23;20247;-87
2022/03/23 03:06:49;;;;;;;15.10;11.68;;;18.30;49.00;;;;;;6094057;23;20228;-87
2022/03/23 03:09:21;;;;;;;15.25;11.25;;;18.30;49.20;;;;;;6094730;23;20159;-87
2022/03/23 03:11:52;;;;;;;17.67;11.73;;;18.30;49.00;;;;;;6071114;23;20212;-89
2022/03/23 03:14:22;;;;;;;15.00;10.65;;;18.30;48.90;;;;;;6095342;23;20155;-87
2022/03/23 03:16:55;;;;;;;18.17;12.35;;;18.30;49.10;;;;;;6095088;23;20159;-87
2022/03/23 03:19:24;;;;;;;17.55;11.18;;;18.30;49.10;;;;;;6118809;23;20261;-87
2022/03/23 03:22:02;;;;;;;16.30;11.95;;;18.20;49.20;;;;;;6096925;23;20155;-87
2022/03/23 03:24:37;;;;;;;15.68;11.55;;;18.20;49.00;;;;;;6120139;23;20147;-87
2022/03/23 03:27:06;;;;;;;16.55;11.45;;;18.30;49.00;;;;;;6096212;23;20178;-87
2022/03/23 03:29:34;;;;;;;16.98;11.63;;;18.30;49.10;;;;;;6119351;23;20183;-87
2022/03/23 03:32:02;;;;;;;17.63;12.15;;;18.30;49.20;;;;;;6118939;23;20167;-87
2022/03/23 03:34:35;;;;;;;18.08;12.35;;;18.30;49.80;;;;;;6094865;23;20155;-87
2022/03/23 03:37:03;;;;;;;16.35;11.20;;;18.30;49.90;;;;;;6119087;23;20159;-87
2022/03/23 03:39:30;;;;;;;18.30;11.98;;;18.20;49.00;;;;;;6119747;23;20651;-87
2022/03/23 03:42:04;;;;;;;17.75;11.68;;;18.30;49.20;;;;;;6119763;23;20154;-87
2022/03/23 03:44:30;;;;;;;18.85;11.48;;;18.20;49.20;;;;;;6120100;23;20151;-87
2022/03/23 03:47:05;;;;;;;16.95;11.75;;;18.20;49.00;;;;;;6096307;23;20132;-88
2022/03/23 03:49:41;;;;;;;16.40;11.23;;;18.20;49.10;;;;;;6094966;23;20591;-87
2022/03/23 03:52:08;;;;;;;15.77;11.40;;;18.20;49.00;;;;;;6096623;23;20151;-88
2022/03/23 03:54:42;;;;;;;16.33;11.50;;;18.20;49.10;;;;;;6119451;23;20210;-87
2022/03/23 03:57:13;;;;;;;16.38;11.35;;;18.30;49.20;;;;;;6119743;23;20147;-87
2022/03/23 03:59:43;;;;;;;16.55;11.32;;;18.20;49.10;;;;;;6119946;23;20186;-87
2022/03/23 04:02:14;;;;;;;15.25;11.43;;;18.20;49.20;;;;;;6125359;23;20183;-88
2022/03/23 04:04:41;;;;;;;15.77;11.35;;;18.20;49.10;;;;;;6149942;23;20161;-87
2022/03/23 04:07:13;;;;;;;17.52;11.57;;;18.20;49.10;;;;;;6123588;23;20525;-87
2022/03/23 04:09:45;;;;;;;15.68;11.48;;;18.20;49.30;;;;;;6124272;23;20151;-87
2022/03/23 04:12:11;;;;;;;17.45;11.32;;;18.30;49.40;;;;;;6124095;23;20154;-88
2022/03/23 04:14:38;;;;;;;17.45;11.93;;;18.20;49.40;;;;;;6148919;23;20166;-87
2022/03/23 04:17:04;;;;;;;15.68;11.48;;;18.20;49.20;;;;;;6148950;23;20270;-87
2022/03/23 04:19:31;;;;;;;16.17;11.80;;;18.20;49.30;;;;;;6149204;23;20174;-87
2022/03/23 04:22:03;;;;;;;15.10;10.90;;;18.20;49.40;;;;;;6114344;23;20152;-88
2022/03/23 04:24:34;;;;;;;18.10;11.38;;;18.20;49.20;;;;;;6067611;23;20182;-87
2022/03/23 04:27:07;;;;;;;16.08;11.80;;;18.20;49.60;;;;;;6042871;23;20156;-87
2022/03/23 04:29:46;;;;;;;18.45;11.85;;;18.20;50.00;;;;;;6043779;23;20167;-87
2022/03/23 04:32:17;;;;;;;17.42;11.60;;;18.20;49.20;;;;;;6066313;23;20158;-87
2022/03/23 04:34:43;;;;;;;14.23;11.13;;;18.20;49.30;;;;;;6066120;23;20246;-86
2022/03/23 04:37:09;;;;;;;14.43;10.93;;;18.20;49.40;;;;;;6090409;23;20163;-88
2022/03/23 04:39:40;;;;;;;16.30;11.57;;;18.20;49.00;;;;;;6090486;23;20675;-87
2022/03/23 04:42:13;;;;;;;13.73;11.43;;;18.20;49.20;;;;;;6042697;23;20216;-89
2022/03/23 04:44:39;;;;;;;17.05;11.77;;;18.20;49.30;;;;;;6067802;23;20156;-87
2022/03/23 04:47:06;;;;;;;14.88;10.98;;;18.20;49.30;;;;;;6066552;23;20485;-87
2022/03/23 04:49:37;;;;;;;14.30;11.23;;;18.10;49.20;;;;;;6051857;23;20162;-88
2022/03/23 04:52:11;;;;;;;14.23;10.57;;;18.20;49.50;;;;;;6018531;23;20155;-87
2022/03/23 04:54:39;;;;;;;13.90;10.88;;;18.20;49.20;;;;;;5949145;24;20169;-87
2022/03/23 04:57:06;;;;;;;15.45;11.48;;;18.20;49.30;;;;;;5947963;24;20703;-88
2022/03/23 04:59:47;;;;;;;16.35;11.55;;;18.20;49.20;;;;;;5964288;23;20190;-87
2022/03/23 05:02:16;;;;;;;14.70;10.93;;;18.20;48.90;;;;;;5954043;23;20238;-87
2022/03/23 05:04:45;;;;;;;14.73;10.93;;;18.20;49.50;;;;;;6046475;23;20158;-89
2022/03/23 05:07:13;;;;;;;15.02;10.88;;;18.10;49.30;;;;;;6023809;23;20158;-86
2022/03/23 05:09:43;;;;;;;16.70;11.55;;;18.20;49.30;;;;;;5976824;23;20162;-86
2022/03/23 05:12:16;;;;;;;16.15;12.10;;;18.20;49.30;;;;;;5975929;23;20234;-88
2022/03/23 05:14:44;;;;;;;15.85;11.48;;;18.20;49.00;;;;;;5976818;23;20155;-87
2022/03/23 05:17:15;;;;;;;15.30;10.52;;;18.20;49.60;;;;;;6022839;23;20155;-87
2022/03/23 05:19:44;;;;;;;15.82;11.40;;;18.10;49.60;;;;;;6009601;23;20184;-87
2022/03/23 05:22:15;;;;;;;15.38;11.27;;;18.20;49.50;;;;;;6024195;23;20206;-87
2022/03/23 05:24:48;;;;;;;14.10;10.50;;;18.10;49.70;;;;;;6073382;23;20215;-87
2022/03/23 05:27:25;;;;;;;14.05;10.88;;;18.10;49.10;;;;;;6072752;23;20151;-87
2022/03/23 05:29:57;;;;;;;16.00;11.48;;;18.20;49.30;;;;;;6071962;23;20497;-87
2022/03/23 05:32:28;;;;;;;14.77;11.05;;;18.20;49.20;;;;;;6071687;23;20159;-87
2022/03/23 05:34:58;;;;;;;15.88;11.43;;;18.20;49.30;;;;;;6033257;23;20157;-87
2022/03/23 05:37:27;;;;;;;14.75;11.27;;;18.20;49.40;;;;;;6080753;23;20639;-87
2022/03/23 05:39:57;;;;;;;14.07;10.85;;;18.20;49.20;;;;;;6057867;23;20244;-88
2022/03/23 05:42:27;;;;;;;13.80;10.75;;;18.20;49.10;;;;;;6032614;23;20185;-87
2022/03/23 05:44:58;;;;;;;15.73;10.60;;;18.20;48.90;;;;;;6057489;23;20160;-87
2022/03/23 05:47:26;;;;;;;15.13;11.13;;;18.20;50.10;;;;;;6033887;23;20177;-87
2022/03/23 05:49:52;;;;;;;13.50;10.38;;;18.20;49.10;;;;;;6081933;23;20153;-88
2022/03/23 05:52:36;;;;;;;14.18;10.35;;;18.20;48.40;;;;;;6057819;23;20188;-87
2022/03/23 05:55:05;;;;;;;14.18;10.57;;;18.30;48.50;;;;;;6034423;23;20158;-87
2022/03/23 05:57:38;;;;;;;14.55;11.35;;;18.30;48.40;;;;;;6057481;23;20153;-88
2022/03/23 06:00:10;;;;;;;13.07;9.98;;;18.20;48.50;;;;;;6056076;23;20185;-87
2022/03/23 06:02:39;;;;;;;15.98;10.88;;;18.30;48.40;;;;;;6044679;23;20196;-88
2022/03/23 06:05:13;;;;;;;16.02;11.55;;;18.30;48.50;;;;;;6101481;23;20185;-87
2022/03/23 06:07:42;;;;;;;14.77;11.32;;;18.30;48.00;;;;;;6125321;23;20165;-87
2022/03/23 06:10:16;;;;;;;15.55;10.60;;;18.30;48.70;;;;;;6125286;23;20147;-87
2022/03/23 06:12:47;;;;;;;16.00;11.35;;;18.30;48.30;;;;;;6125055;23;20576;-89
2022/03/23 06:15:18;;;;;;;14.80;10.95;;;18.30;48.70;;;;;;6125751;23;20147;-87
2022/03/23 06:17:52;;;;;;;14.98;10.35;;;18.30;48.20;;;;;;6125079;23;20245;-87
2022/03/23 06:20:25;;;;;;;14.13;10.60;;;18.40;47.80;;;;;;6124583;23;20162;-88
2022/03/23 06:22:59;;;;;;;13.82;10.48;;;18.40;48.10;;;;;;6100575;23;20150;-87
2022/03/23 06:25:32;;;;;;;12.60;10.13;;;18.40;47.90;;;;;;6149493;23;20161;-87
2022/03/23 06:28:06;;;;;;;16.98;10.63;;;18.40;47.80;;;;;;6125640;23;20154;-87
2022/03/23 06:30:36;;;;;;;14.30;10.32;;;18.40;47.50;;;;;;6125538;23;20151;-88
2022/03/23 06:33:10;;;;;;;13.20;9.25;;;18.50;47.30;;;;;;6147736;23;20151;-88
2022/03/23 06:35:38;;;;;;;14.73;10.50;;;18.60;47.20;;;;;;6037224;23;20191;-88
2022/03/23 06:38:08;;;;;;;12.38;9.88;;;18.60;47.40;;;;;;6013313;23;20153;-88
2022/03/23 06:40:40;;;;;;;12.95;9.70;;;18.60;46.90;;;;;;6062570;23;20180;-87
2022/03/23 06:43:09;;;;;;;13.13;9.95;;;18.60;47.40;;;;;;6061897;23;20153;-88
2022/03/23 06:45:46;;;;;;;11.85;9.43;;;18.60;47.60;;;;;;6062009;23;20212;-87
2022/03/23 06:48:16;;;;;;;11.77;9.80;;;18.60;47.70;;;;;;6061158;23;20514;-86
2022/03/23 06:50:47;;;;;;;12.90;10.00;;;18.60;47.00;;;;;;6061955;23;20247;-87
2022/03/23 06:53:22;;;;;;;13.98;10.55;;;18.70;47.10;;;;;;6000179;23;20539;-87
2022/03/23 06:55:55;;;;;;;13.50;9.95;;;18.70;47.40;;;;;;6000159;23;20159;-88
2022/03/23 06:58:25;;;;;;;13.77;9.98;;;18.70;46.80;;;;;;6042924;23;20190;-88
2022/03/23 07:00:58;;;;;;;12.38;9.60;;;18.70;47.00;;;;;;5963245;24;20604;-88
2022/03/23 07:03:29;;;;;;;13.80;10.20;;;18.70;46.70;;;;;;5939088;24;20267;-88
2022/03/23 07:06:02;;;;;;;11.63;9.45;;;18.70;46.70;;;;;;5951396;24;20159;-88
2022/03/23 07:11:21;;;;;;;12.13;9.75;;;18.70;46.60;;;;;;5971925;24;20155;-88
2022/03/23 07:13:59;;;;;;;13.52;9.85;;;18.70;46.60;;;;;;5965956;24;20195;-89
2022/03/23 07:16:28;;;;;;;14.73;9.48;;;18.70;46.60;;;;;;6007397;23;20199;-87
2022/03/23 07:18:55;;;;;;;12.85;9.52;;;18.80;46.50;;;;;;5958998;24;20616;-87
2022/03/23 07:21:22;;;;;;;11.18;9.65;;;18.70;46.50;;;;;;5981575;24;20251;-87
2022/03/23 07:23:51;;;;;;;12.90;8.85;;;18.80;46.20;;;;;;5958212;24;20155;-88
2022/03/23 07:26:30;;;;;;;12.95;9.50;;;18.80;45.80;;;;;;5958873;24;20167;-86
2022/03/23 07:28:56;;;;;;;14.27;9.25;;;18.80;46.70;;;;;;6004095;23;20242;-87
2022/03/23 07:31:23;;;;;;;13.15;9.13;;;18.80;46.20;;;;;;6044543;23;20160;-86
2022/03/23 07:33:50;;;;;;;11.30;8.98;;;18.80;46.10;;;;;;6072207;23;20192;-88
2022/03/23 07:36:16;;;;;;;12.43;9.98;;;18.80;46.30;;;;;;6113023;23;20407;-89
2022/03/23 07:38:42;;;;;;;11.73;9.85;;;18.80;46.40;;;;;;6132357;23;20333;-89
2022/03/23 07:41:08;;;;;;;12.65;10.05;;;18.80;46.80;;;;;;6082944;23;20190;-87
2022/03/23 07:43:34;;;;;;;12.73;9.25;;;18.80;47.00;;;;;;6108436;23;20679;-87
2022/03/23 07:46:00;;;;;;;13.32;9.73;;;18.70;45.80;;;;;;6084113;23;20147;-84
2022/03/23 07:48:26;;;;;;;15.40;9.48;;;18.70;46.90;;;;;;6131792;23;20132;-84
2022/03/23 07:50:51;;;;;;;11.95;9.48;;;18.70;46.60;;;;;;6107701;23;20151;-86
2022/03/23 07:53:18;;;;;;;10.93;8.25;;;18.80;46.10;;;;;;6083954;23;20157;-89
2022/03/23 07:55:49;;;;;;;14.57;9.52;;;18.80;45.90;;;;;;6108563;23;20142;-87
2022/03/23 07:58:47;;;;;;;12.18;8.65;;;18.80;45.90;;;;;;6054319;23;20180;-86
2022/03/23 08:01:15;;;;;;;14.00;9.57;;;18.80;46.10;;;;;;5986641;24;20219;-87
2022/03/23 08:05:02;;;;;;;13.52;9.18;;;18.80;46.80;;;;;;5968001;24;20207;-85
2022/03/23 08:07:33;;;;;;;13.00;9.30;;;18.80;46.20;;;;;;5945473;24;20161;-88
2022/03/23 08:10:04;;;;;;;12.68;8.48;;;18.80;46.60;;;;;;5925662;24;20157;-90
2022/03/23 08:12:34;;;;;;;12.02;9.25;;;19.00;45.10;;;;;;5850377;24;20163;-88
2022/03/23 08:15:00;;;;;;;13.52;9.23;;;19.00;45.80;;;;;;5924768;24;20266;-88
2022/03/23 08:17:26;;;;;;;15.50;9.23;;;19.10;45.80;;;;;;5972020;24;20163;-90
2022/03/23 08:20:36;;;;;;;12.98;9.13;;;19.10;45.50;;;;;;5970208;24;20190;-88
2022/03/23 08:22:43;;;;;;;12.43;9.40;;;19.10;45.60;;;;;;5991785;24;20182;-88
2022/03/23 08:25:10;;;;;;;13.55;9.45;;;19.00;46.40;;;;;;5991937;24;20155;-88
2022/03/23 08:27:35;;;;;;;13.27;8.85;;;19.00;45.90;;;;;;5970373;24;20159;-87
2022/03/23 08:30:06;;;;;;;12.32;8.65;;;19.10;44.40;;;;;;6037332;23;20232;-85
2022/03/23 08:32:33;;;;;;;15.27;8.77;;;19.10;45.10;;;;;;6042884;23;20157;-85
2022/03/23 08:35:23;;;;;;;13.13;8.70;;;19.10;44.60;;;;;;6019701;23;20157;-86
2022/03/23 08:37:54;;;;;;;14.27;9.30;;;19.10;45.10;;;;;;6064296;23;20164;-88
2022/03/23 08:40:27;;;;;;;13.30;8.98;;;19.10;45.80;;;;;;6003309;23;20181;-87
2022/03/23 08:42:52;;;;;;;10.52;8.80;;;19.00;44.80;;;;;;6047914;23;20150;-86
2022/03/23 08:45:19;;;;;;;11.23;8.90;;;19.00;45.30;;;;;;6002092;23;20160;-87
2022/03/23 08:47:48;;;;;;;14.57;9.65;;;19.00;45.40;;;;;;6006458;23;20225;-88
2022/03/23 08:50:15;;;;;;;11.57;8.30;;;19.00;45.50;;;;;;6032209;23;20262;-87
2022/03/23 08:52:42;;;;;;;12.65;8.85;;;19.10;44.80;;;;;;6029777;23;20174;-88
2022/03/23 08:55:09;;;;;;;12.13;9.00;;;19.00;45.10;;;;;;6004110;23;20153;-87
2022/03/23 08:57:38;;;;;;;13.50;8.48;;;19.10;45.50;;;;;;6005844;23;20157;-87
2022/03/23 09:00:16;;;;;;;11.07;8.57;;;19.10;45.40;;;;;;6077203;23;20169;-87
2022/03/23 09:02:41;;;;;;;12.13;8.77;;;19.10;45.20;;;;;;6008159;23;20725;-88
2022/03/23 09:05:14;;;;;;;11.52;8.65;;;19.10;45.50;;;;;;6078194;23;20165;-87
2022/03/23 09:07:40;;;;;;;10.85;8.40;;;19.10;45.70;;;;;;6035448;23;20144;-86
2022/03/23 09:10:07;;;;;;;11.25;8.45;;;19.10;45.20;;;;;;6141376;23;20162;-87
2022/03/23 09:12:33;;;;;;;13.32;8.60;;;19.10;45.30;;;;;;6142663;23;20479;-88
2022/03/23 09:15:12;;;;;;;12.65;8.43;;;19.10;45.10;;;;;;6164954;23;20135;-87
2022/03/23 09:17:38;;;;;;;12.20;8.95;;;19.20;45.00;;;;;;6091930;23;20628;-87
2022/03/23 09:20:09;;;;;;;12.80;8.65;;;19.20;45.50;;;;;;6117328;23;20174;-87
2022/03/23 09:22:36;;;;;;;12.20;7.50;;;19.10;46.00;;;;;;6116860;23;20139;-87
2022/03/23 09:25:03;;;;;;;11.43;8.50;;;19.10;45.40;;;;;;6091307;23;20214;-87
2022/03/23 09:27:36;;;;;;;14.45;8.85;;;19.10;45.00;;;;;;6143637;23;20139;-85
2022/03/23 09:30:06;;;;;;;12.45;8.57;;;19.10;46.30;;;;;;6118615;23;20211;-87
2022/03/23 09:32:32;;;;;;;15.00;8.45;;;19.10;46.20;;;;;;6142247;23;20135;-87
2022/03/23 09:35:02;;;;;;;10.70;8.25;;;19.00;45.90;;;;;;6169636;23;20135;-87
2022/03/23 09:40:08;;;;;;;11.55;8.10;;;19.10;45.60;;;;;;6171156;23;20193;-87
2022/03/23 09:42:36;;;;;;;10.55;8.38;;;19.20;45.20;;;;;;6078187;23;20164;-88
2022/03/23 09:45:03;;;;;;;10.93;8.55;;;19.30;45.00;;;;;;6077051;23;20179;-88
2022/03/23 09:47:29;;;;;;;13.90;9.30;;;19.20;45.70;;;;;;6050491;23;20252;-88
2022/03/23 09:49:59;;;;;;;13.73;8.57;;;19.20;45.00;;;;;;6074894;23;20255;-86
2022/03/23 09:52:25;;;;;;;10.85;7.85;;;19.20;45.80;;;;;;6005309;23;20160;-88
2022/03/23 09:54:51;;;;;;;12.07;8.07;;;19.30;45.70;;;;;;6052830;23;20180;-88
2022/03/23 09:57:17;;;;;;;11.00;7.82;;;19.30;45.00;;;;;;6074260;23;20160;-88
2022/03/23 09:59:47;;;;;;;13.15;8.30;;;19.40;44.90;;;;;;6051064;23;20229;-88
2022/03/23 10:02:42;;;;;;;9.43;7.45;;;19.30;45.00;;;;;;6051879;23;20958;-89
2022/03/23 10:05:24;;;;;;;12.23;8.77;;;19.30;45.30;;;;;;6102566;23;20157;-89
2022/03/23 10:08:11;;;;;;;8.82;7.63;;;19.40;45.90;;;;;;6100853;23;20152;-87
2022/03/23 10:11:12;;;;;;;11.23;8.23;;;19.30;44.80;;;;;;6079621;23;20635;-87
2022/03/23 10:14:12;;;;;;;11.27;7.88;;;19.40;45.00;;;;;;6126697;23;20151;-88
2022/03/23 10:17:11;;;;;;;14.98;8.20;;;19.40;45.20;;;;;;6189644;23;20598;-86
2022/03/23 10:19:44;;;;;;;10.32;7.82;;;19.40;45.50;;;;;;6189008;23;20270;-85
2022/03/23 10:22:12;;;;;;;10.80;8.48;;;19.30;45.80;;;;;;6162131;23;20157;-87
2022/03/23 10:24:38;;;;;;;13.82;8.23;;;19.30;45.00;;;;;;6138737;23;20139;-88
2022/03/23 10:27:09;;;;;;;10.77;8.48;;;19.30;45.30;;;;;;6139726;23;20295;-89
2022/03/23 10:29:44;;;;;;;13.00;7.95;;;19.40;45.50;;;;;;6139424;23;20496;-88
2022/03/23 10:32:11;;;;;;;11.80;8.30;;;19.30;45.10;;;;;;6055718;23;20179;-87
2022/03/23 10:34:49;;;;;;;11.68;8.85;;;19.40;46.00;;;;;;6103375;23;20188;-86
2022/03/23 10:37:24;;;;;;;9.50;7.93;;;19.30;45.70;;;;;;6082504;23;20156;-87
2022/03/23 10:39:52;;;;;;;14.15;8.82;;;19.40;45.40;;;;;;6128882;23;20278;-88
2022/03/23 10:42:19;;;;;;;12.05;8.30;;;19.30;45.50;;;;;;6126808;23;20151;-88
2022/03/23 10:44:45;;;;;;;12.15;8.38;;;19.30;46.00;;;;;;6125710;23;20144;-88
2022/03/23 10:47:26;;;;;;;11.85;8.20;;;19.30;46.00;;;;;;6125514;23;20230;-88
2022/03/23 10:50:13;;;;;;;11.50;8.38;;;19.30;45.50;;;;;;6126099;23;20549;-86
2022/03/23 10:52:53;;;;;;;9.93;7.78;;;19.30;45.60;;;;;;6079693;23;20238;-88
2022/03/23 10:55:19;;;;;;;14.18;8.70;;;19.30;45.60;;;;;;6125932;23;20158;-87
2022/03/23 10:58:17;;;;;;;11.13;8.15;;;19.30;45.20;;;;;;6125964;23;20603;-88
2022/03/23 11:00:48;;;;;;;11.85;8.30;;;19.30;46.60;;;;;;6105265;23;20481;-87
2022/03/23 11:03:13;;;;;;;10.48;7.80;;;19.30;45.60;;;;;;6122576;23;20194;-87
2022/03/23 11:05:46;;;;;;;10.18;7.65;;;19.30;45.30;;;;;;6136889;23;20233;-87
2022/03/23 11:08:18;;;;;;;9.55;7.95;;;19.20;45.70;;;;;;6088479;23;20630;-85
2022/03/23 11:16:23;;;;;;;12.35;8.10;;;19.20;47.10;;;;;;6103135;23;20151;-89
2022/03/23 11:19:19;;;;;;;11.98;8.50;;;19.10;46.20;;;;;;6090516;23;20520;-89
2022/03/23 11:22:04;;;;;;;10.98;8.40;;;19.10;46.40;;;;;;6049204;23;20155;-88
2022/03/23 11:24:33;;;;;;;12.70;7.65;;;19.10;45.60;;;;;;6136709;23;20506;-88
2022/03/23 11:27:00;;;;;;;10.85;8.10;;;19.10;45.60;;;;;;6064935;23;20146;-87
2022/03/23 11:29:26;;;;;;;9.63;6.97;;;19.10;45.70;;;;;;6136707;23;20135;-88
2022/03/23 11:31:55;;;;;;;11.68;8.25;;;19.20;44.80;;;;;;6113942;23;20198;-91
2022/03/23 11:34:34;;;;;;;11.32;7.53;;;19.20;45.40;;;;;;6139069;23;20467;-91
2022/03/23 11:37:08;;;;;;;10.88;8.38;;;19.20;45.10;;;;;;6142703;23;20154;-91
2022/03/23 11:39:35;;;;;;;10.77;8.27;;;19.20;45.80;;;;;;6067041;23;20240;-88
2022/03/23 13:27:28;;;;;;;11.05;7.40;;;19.30;45.00;;;;;;6228155;22;20559;-87
2022/03/23 13:30:12;;;;;;;;;;;;;;;;;;;;;
2022/03/23 13:32:51;;;;;;;8.05;7.22;;;19.20;45.10;;;;;;6129760;23;20640;-91
2022/03/23 13:35:26;;;;;;;9.07;7.55;;;19.10;45.30;;;;;;6172235;23;20127;-88
2022/03/23 13:37:57;;;;;;;8.40;7.03;;;19.20;45.70;;;;;;6168457;23;20157;-87
2022/03/23 13:43:19;;;;;;;8.57;7.25;;;19.20;45.10;;;;;;6143739;23;20181;-88
2022/03/23 13:43:20;;;;;;;9.05;7.47;;;19.20;44.60;;;;;;6181622;23;20448;-88
2022/03/23 13:45:49;;;;;;;8.60;7.43;;;19.20;45.00;;;;;;6198830;23;20134;-86
2022/03/23 14:06:22;;;;;;;8.65;7.38;;;19.10;45.60;;;;;;6235652;22;20208;-84
2022/03/23 14:08:55;;;;;;;10.98;7.32;;;19.10;45.30;;;;;;6197592;23;20149;-85
2022/03/23 14:11:47;;;;;;;9.02;7.25;;;19.10;45.30;;;;;;6198280;23;20168;-84
2022/03/23 14:14:12;;;;;;;11.70;7.57;;;19.10;45.20;;;;;;6202802;23;20149;-85
2022/03/23 14:16:38;;;;;;;8.50;7.07;;;19.20;45.20;;;;;;6174464;23;20141;-85
2022/03/23 14:19:03;;;;;;;10.70;7.22;;;19.10;45.40;;;;;;6225123;23;20165;-85
2022/03/23 14:21:30;;;;;;;8.48;7.10;;;19.20;45.40;;;;;;6199593;23;20272;-83
2022/03/23 14:23:56;;;;;;;8.70;7.55;;;19.20;44.60;;;;;;6223177;23;20134;-85
2022/03/23 14:26:33;;;;;;;9.18;7.40;;;19.20;45.40;;;;;;6199267;23;20199;-87
2022/03/23 14:29:00;;;;;;;9.05;6.85;;;19.20;45.10;;;;;;6225898;23;20134;-85
2022/03/23 14:31:26;;;;;;;7.80;6.80;;;19.20;45.00;;;;;;6205173;23;20149;-86
2022/03/23 14:33:54;;;;;;;7.85;6.82;;;19.20;44.80;;;;;;6179022;23;20543;-87
2022/03/23 14:36:22;;;;;;;10.02;7.47;;;19.20;45.20;;;;;;6229917;23;20133;-85
2022/03/23 14:38:47;;;;;;;8.07;6.57;;;19.10;45.20;;;;;;6182262;23;20177;-85
2022/03/23 14:41:21;;;;;;;9.13;6.82;;;19.10;44.60;;;;;;6207520;23;20209;-84
2022/03/23 14:43:54;;;;;;;8.30;6.43;;;19.10;44.90;;;;;;6235509;23;20130;-84
2022/03/23 14:46:26;;;;;;;8.13;6.75;;;19.10;44.70;;;;;;6185108;23;20138;-85
2022/03/23 14:49:08;;;;;;;9.75;7.30;;;19.10;44.50;;;;;;6208029;23;20138;-87
2022/03/23 14:51:39;;;;;;;9.80;7.70;;;19.10;45.30;;;;;;6179253;23;20138;-84
2022/03/23 14:54:08;;;;;;;7.75;6.78;;;19.10;45.40;;;;;;6150768;23;20153;-85
2022/03/23 14:56:37;;;;;;;9.10;7.38;;;19.10;45.10;;;;;;6225256;23;20161;-85
2022/03/23 14:59:05;;;;;;;8.82;6.95;;;19.10;45.20;;;;;;6173656;23;20185;-85
2022/03/23 15:01:36;;;;;;;7.72;6.68;;;19.10;45.20;;;;;;6222528;23;20176;-85
2022/03/23 15:04:05;;;;;;;9.02;6.90;;;19.10;45.60;;;;;;6171976;23;20176;-85
2022/03/23 15:14:48;;;;;;;8.00;6.82;;;19.10;45.30;;;;;;6177861;23;20154;-88
2022/03/23 15:17:16;;;;;;;9.50;7.22;;;19.10;45.70;;;;;;6143963;23;20202;-86
2022/03/23 15:19:45;;;;;;;8.07;6.82;;;19.00;45.50;;;;;;6217715;23;20166;-87
2022/03/23 15:22:13;;;;;;;9.18;7.45;;;19.10;45.40;;;;;;6172730;23;20142;-88
2022/03/23 15:24:39;;;;;;;10.35;7.60;;;19.20;45.30;;;;;;6143389;23;20235;-89